Time;durP1;ratioP1;P1;durP2;ratioP2;P2;SDS_P1;SDS_P2;PMS_P1;PMS_P2;Temp;Humidity;BMP_temperature;BMP_pressure;BME280_temperature;BME280_humidity;BME280_pressure;Samples;Min_cycle;Max_cycle;Signal;HPM_P1;HPM_P2
2022/10/14 00:02:18;;;;;;;4.78;3.08;;;;;;;13.54;86.87;94974.47;5073430;28;20243;-62
2022/10/14 00:04:43;;;;;;;4.00;2.75;;;;;;;13.46;85.90;94985.41;5073463;28;20212;-62
2022/10/14 00:07:09;;;;;;;3.80;2.80;;;;;;;13.41;86.27;94974.00;5055266;28;20196;-61
2022/10/14 00:09:34;;;;;;;3.90;2.60;;;;;;;13.43;85.98;94972.09;5055232;28;20737;-63
2022/10/14 00:12:00;;;;;;;8.13;2.90;;;;;;;13.52;86.07;94967.88;5073263;28;20235;-62
2022/10/14 00:14:25;;;;;;;3.05;2.70;;;;;;;13.52;85.77;94970.44;5054537;23;20232;-59
2022/10/14 00:16:53;;;;;;;2.47;2.13;;;;;;;13.43;86.49;94949.91;5053271;28;20572;-61
2022/10/14 00:19:19;;;;;;;4.40;2.28;;;;;;;13.47;85.61;94966.56;5053186;28;20214;-60
2022/10/14 00:21:45;;;;;;;5.65;3.08;;;;;;;13.58;85.88;94959.66;5053134;28;20196;-61
2022/10/14 00:24:12;;;;;;;3.20;2.37;;;;;;;13.64;83.96;94999.97;5052958;28;20718;-62
2022/10/14 00:26:39;;;;;;;5.17;2.13;;;;;;;13.66;83.99;95000.66;5053113;28;20620;-62
2022/10/14 00:29:08;;;;;;;4.60;2.47;;;;;;;13.56;85.30;94951.34;5053260;28;20221;-58
2022/10/14 00:31:34;;;;;;;5.95;2.45;;;;;;;13.53;84.15;94980.53;5052878;28;20218;-62
2022/10/14 00:34:00;;;;;;;3.25;2.10;;;;;;;13.56;84.63;94979.44;5051424;28;20304;-61
2022/10/14 00:36:25;;;;;;;3.63;2.03;;;;;;;13.56;84.87;94964.09;5052728;28;20272;-60
2022/10/14 00:38:52;;;;;;;4.90;2.30;;;;;;;13.50;85.45;94952.72;5052905;28;20230;-61
2022/10/14 00:41:24;;;;;;;3.35;2.10;;;;;;;13.45;87.48;94906.38;5052660;28;20185;-60
2022/10/14 00:44:09;;;;;;;3.87;2.57;;;;;;;13.38;89.21;94880.59;5052714;28;20213;-61
2022/10/14 00:46:46;;;;;;;5.15;2.40;;;;;;;13.48;86.73;94929.06;5011924;28;20224;-58
2022/10/14 00:49:46;;;;;;;15.02;1.95;;;;;;;13.47;86.69;94938.47;5053128;28;20590;-64
2022/10/14 00:52:18;;;;;;;4.35;2.10;;;;;;;13.44;87.95;94910.66;5008520;28;20216;-61
2022/10/14 00:54:57;;;;;;;3.05;2.08;;;;;;;13.40;90.21;94860.00;5052879;28;20333;-60
2022/10/14 00:57:24;;;;;;;3.75;2.05;;;;;;;13.41;88.75;94884.63;5052795;28;20239;-61
2022/10/14 00:59:50;;;;;;;3.65;1.98;;;;;;;13.51;87.93;94894.78;5052542;28;20713;-60
2022/10/14 01:02:15;;;;;;;5.30;1.63;;;;;;;13.36;90.39;94854.38;5034721;28;20186;-61
2022/10/14 01:04:43;;;;;;;2.60;1.88;;;;;;;13.41;89.93;94854.75;5052331;28;20213;-62
2022/10/14 01:07:33;;;;;;;2.90;1.65;;;;;;;13.44;88.81;94877.47;5052238;28;20243;-59
2022/10/14 01:10:08;;;;;;;2.10;1.40;;;;;;;13.34;89.16;94863.13;5052748;28;20722;-61
2022/10/14 01:13:04;;;;;;;5.37;1.90;;;;;;;13.19;91.35;94819.38;5052336;28;20598;-60
2022/10/14 01:15:30;;;;;;;2.63;1.73;;;;;;;13.15;91.09;94832.59;5052448;28;20209;-61
2022/10/14 01:18:13;;;;;;;3.70;1.60;;;;;;;13.13;92.03;94799.53;5034363;28;20243;-62
2022/10/14 01:20:48;;;;;;;4.47;1.77;;;;;;;13.11;92.64;94785.31;5052325;28;20223;-63
2022/10/14 01:23:32;;;;;;;3.25;1.70;;;;;;;13.08;92.47;94791.50;5052115;28;20661;-59
2022/10/14 01:26:35;;;;;;;2.27;1.70;;;;;;;13.10;92.39;94787.06;5033891;28;20267;-60
2022/10/14 01:29:08;;;;;;;2.43;1.53;;;;;;;12.96;93.86;94751.78;5051835;28;20665;-61
2022/10/14 01:31:38;;;;;;;2.23;1.60;;;;;;;12.97;94.31;94753.38;5034163;28;20243;-60
2022/10/14 01:34:09;;;;;;;2.75;1.27;;;;;;;13.03;94.70;94752.78;5052323;28;20794;-61
2022/10/14 01:37:08;;;;;;;1.40;1.30;;;;;;;13.04;94.74;94762.09;5051936;28;20193;-61
2022/10/14 01:39:41;;;;;;;3.80;1.52;;;;;;;12.95;95.45;94741.72;5037512;28;20359;-63
2022/10/14 01:42:22;;;;;;;1.33;1.20;;;;;;;12.96;96.37;94736.47;5050451;28;20238;-61
2022/10/14 01:44:53;;;;;;;1.47;1.20;;;;;;;13.02;96.41;94730.78;5050380;28;20221;-63
2022/10/14 01:47:20;;;;;;;3.93;1.30;;;;;;;12.98;97.81;94700.59;5050373;28;20186;-59
2022/10/14 01:49:57;;;;;;;6.27;1.63;;;;;;;12.89;97.96;94709.91;5051657;28;20209;-60
2022/10/14 01:52:30;;;;;;;1.75;1.38;;;;;;;12.92;99.29;94689.22;5051528;28;20192;-60
2022/10/14 01:55:01;;;;;;;1.20;1.10;;;;;;;12.96;97.89;94705.03;5051627;28;20206;-61
2022/10/14 01:57:30;;;;;;;3.27;1.13;;;;;;;12.98;98.05;94709.06;5051471;28;20651;-60
2022/10/14 01:59:57;;;;;;;1.83;1.53;;;;;;;12.97;98.29;94707.44;5051809;28;20334;-62
2022/10/14 02:02:24;;;;;;;1.97;1.20;;;;;;;12.96;99.24;94702.47;5051643;28;20197;-60
2022/10/14 02:04:50;;;;;;;1.80;1.63;;;;;;;12.96;98.72;94705.03;5051112;28;20220;-62
2022/10/14 02:07:31;;;;;;;1.85;1.67;;;;;;;13.01;99.56;94695.22;5051304;28;20190;-62
2022/10/14 02:10:27;;;;;;;1.73;1.20;;;;;;;12.99;99.74;94700.44;5050659;28;20229;-63
2022/10/14 02:13:22;;;;;;;1.73;1.42;;;;;;;13.10;98.87;94712.22;5051406;28;20200;-59
2022/10/14 02:16:09;;;;;;;3.30;1.47;;;;;;;13.01;99.28;94701.09;5051410;28;20308;-59
2022/10/14 02:18:46;;;;;;;1.10;1.05;;;;;;;13.21;97.76;94710.28;5051156;28;20570;-60
2022/10/14 02:21:51;;;;;;;1.88;1.33;;;;;;;13.15;99.06;94710.84;5040150;23;20291;-62
2022/10/14 02:24:19;;;;;;;3.03;1.37;;;;;;;13.10;99.64;94702.84;5027910;28;20234;-60
2022/10/14 02:26:47;;;;;;;2.67;1.80;;;;;;;13.22;99.11;94714.44;5031386;28;20717;-59
2022/10/14 02:29:13;;;;;;;2.63;1.20;;;;;;;13.33;98.55;94719.31;5031305;28;20214;-59
2022/10/14 02:31:41;;;;;;;2.60;1.38;;;;;;;13.28;98.15;94720.72;5013477;28;20198;-61
2022/10/14 02:34:11;;;;;;;2.00;1.00;;;;;;;13.16;99.47;94691.22;5031274;28;20228;-59
2022/10/14 02:36:38;;;;;;;2.03;1.10;;;;;;;13.18;99.85;94687.59;5031062;28;20186;-59
2022/10/14 02:39:06;;;;;;;2.13;0.97;;;;;;;13.33;99.33;94701.44;5030810;28;20244;-59
2022/10/14 02:41:34;;;;;;;1.55;1.10;;;;;;;13.25;100.00;94688.59;5031063;28;20201;-62
2022/10/14 02:44:00;;;;;;;1.80;1.00;;;;;;;13.05;100.00;94679.47;5074878;22;20224;-61
2022/10/14 02:46:27;;;;;;;6.53;1.27;;;;;;;13.02;100.00;94679.75;5069539;28;20193;-62
2022/10/14 02:48:53;;;;;;;3.53;0.70;;;;;;;12.88;100.00;94672.59;5071224;28;20578;-62
2022/10/14 02:51:18;;;;;;;4.28;1.25;;;;;;;12.97;100.00;94671.72;5070760;28;20176;-62
2022/10/14 02:53:44;;;;;;;3.70;1.20;;;;;;;12.92;100.00;94673.09;5071054;28;20209;-62
2022/10/14 02:56:12;;;;;;;1.10;1.00;;;;;;;13.00;100.00;94684.19;5070928;28;20658;-59
2022/10/14 02:58:37;;;;;;;6.57;1.10;;;;;;;13.05;100.00;94692.22;5070624;28;20276;-61
2022/10/14 03:01:03;;;;;;;1.00;1.00;;;;;;;12.93;100.00;94667.06;5070766;28;20176;-63
2022/10/14 03:03:29;;;;;;;0.90;0.90;;;;;;;12.82;100.00;94662.94;5070853;28;20641;-61
2022/10/14 03:05:54;;;;;;;3.07;1.70;;;;;;;12.86;100.00;94674.47;5070446;28;20292;-60
2022/10/14 03:08:19;;;;;;;4.43;1.40;;;;;;;12.69;100.00;94654.81;5070540;28;20189;-63
2022/10/14 03:10:46;;;;;;;3.33;1.73;;;;;;;12.64;100.00;94644.25;5070518;28;20598;-62
2022/10/14 03:13:12;;;;;;;2.45;1.33;;;;;;;12.61;100.00;94662.38;5070736;28;20208;-60
2022/10/14 03:15:37;;;;;;;2.40;1.30;;;;;;;12.81;100.00;94674.09;5070499;28;20301;-60
2022/10/14 03:18:02;;;;;;;1.73;1.00;;;;;;;12.76;100.00;94662.72;5070679;28;20189;-61
2022/10/14 03:20:28;;;;;;;2.13;1.40;;;;;;;12.73;100.00;94655.31;5070416;28;20196;-62
2022/10/14 03:22:53;;;;;;;2.07;1.50;;;;;;;12.76;100.00;94663.53;5074255;28;20275;-60
2022/10/14 03:25:19;;;;;;;5.73;1.77;;;;;;;12.81;100.00;94674.09;5074033;28;20219;-61
2022/10/14 03:27:44;;;;;;;8.00;1.50;;;;;;;12.76;100.00;94647.41;5073957;28;20566;-61
2022/10/14 03:30:10;;;;;;;3.17;1.47;;;;;;;12.79;100.00;94665.78;5054545;23;20372;-60
2022/10/14 03:32:36;;;;;;;2.97;1.40;;;;;;;12.68;100.00;94659.09;5033771;28;20186;-60
2022/10/14 03:35:01;;;;;;;1.43;1.17;;;;;;;12.68;100.00;94660.88;5015994;28;20212;-61
2022/10/14 03:37:27;;;;;;;5.15;1.20;;;;;;;12.63;100.00;94666.41;5033773;28;20178;-61
2022/10/14 03:39:52;;;;;;;4.45;1.23;;;;;;;12.47;100.00;94660.28;5033702;28;20292;-60
2022/10/14 03:42:17;;;;;;;1.08;1.00;;;;;;;12.62;100.00;94690.28;5033686;28;20184;-61
2022/10/14 03:44:43;;;;;;;2.63;1.20;;;;;;;12.69;100.00;94687.97;5033920;28;20222;-62
2022/10/14 03:47:09;;;;;;;2.58;1.23;;;;;;;12.74;100.00;94700.31;5015756;28;20182;-61
2022/10/14 03:49:34;;;;;;;4.15;0.90;;;;;;;12.81;100.00;94709.81;5033930;28;20206;-63
2022/10/14 03:52:00;;;;;;;1.83;1.00;;;;;;;12.65;100.00;94673.91;5033699;28;20193;-60
2022/10/14 03:54:25;;;;;;;4.10;1.20;;;;;;;12.54;100.00;94686.84;5034016;28;20214;-61
2022/10/14 03:56:50;;;;;;;1.40;1.30;;;;;;;12.67;100.00;94697.50;5015690;28;20221;-59
2022/10/14 03:59:16;;;;;;;1.27;0.80;;;;;;;12.55;100.00;94678.25;5112376;22;20621;-61
2022/10/14 04:01:41;;;;;;;3.77;0.97;;;;;;;12.51;100.00;94667.53;5093421;28;20172;-60
2022/10/14 04:04:07;;;;;;;2.75;1.00;;;;;;;12.53;100.00;94664.84;5093443;28;20726;-61
2022/10/14 04:06:33;;;;;;;2.27;1.43;;;;;;;12.59;100.00;94682.94;5092146;28;20187;-62
2022/10/14 04:08:58;;;;;;;1.40;1.00;;;;;;;12.49;100.00;94666.88;5093717;28;20294;-61
2022/10/14 04:11:24;;;;;;;2.00;1.17;;;;;;;12.45;100.00;94655.34;5093081;28;20195;-63
2022/10/14 04:13:49;;;;;;;3.23;1.40;;;;;;;12.54;100.00;94663.91;5093635;28;20208;-62
2022/10/14 04:16:15;;;;;;;2.20;1.08;;;;;;;12.60;100.00;94679.41;5091884;28;20191;-61
2022/10/14 04:18:40;;;;;;;2.05;1.30;;;;;;;12.60;100.00;94674.31;5093401;28;20263;-62
2022/10/14 04:21:10;;;;;;;3.53;1.13;;;;;;;12.68;100.00;94676.19;5093380;28;20183;-62
2022/10/14 04:23:35;;;;;;;2.43;1.40;;;;;;;12.80;100.00;94654.63;5093187;28;20583;-62
2022/10/14 04:26:05;;;;;;;3.97;1.70;;;;;;;12.64;100.00;94664.66;5093146;28;20207;-60
2022/10/14 04:28:32;;;;;;;5.47;1.80;;;;;;;12.56;100.00;94669.66;5093163;28;20286;-63
2022/10/14 04:30:57;;;;;;;3.63;1.13;;;;;;;12.71;100.00;94683.53;5093062;28;20192;-61
2022/10/14 04:33:23;;;;;;;18.50;8.00;;;;;;;12.63;100.00;94668.13;5092681;28;20202;-61
2022/10/14 04:35:49;;;;;;;7.20;4.27;;;;;;;12.62;100.00;94662.22;5091558;28;20187;-60
2022/10/14 04:38:14;;;;;;;3.53;1.88;;;;;;;12.66;100.00;94670.41;5092301;28;20203;-59
2022/10/14 04:40:43;;;;;;;3.08;1.58;;;;;;;12.73;100.00;94676.53;5092826;28;20287;-63
2022/10/14 04:43:09;;;;;;;5.03;1.60;;;;;;;12.66;100.00;94681.41;5091855;28;20188;-63
2022/10/14 04:45:35;;;;;;;3.78;1.55;;;;;;;12.68;100.00;94686.38;5092827;28;20269;-60
2022/10/14 04:48:00;;;;;;;1.88;1.52;;;;;;;12.72;100.00;94681.78;5092965;28;20202;-61
2022/10/14 04:50:26;;;;;;;7.40;1.80;;;;;;;12.77;100.00;94675.31;5108473;28;20208;-61
2022/10/14 04:52:51;;;;;;;2.50;1.73;;;;;;;12.77;100.00;94674.50;5093016;28;20189;-61
2022/10/14 04:55:17;;;;;;;3.58;1.98;;;;;;;12.92;100.00;94673.91;5092784;28;20222;-59
2022/10/14 04:57:43;;;;;;;5.50;2.10;;;;;;;12.96;100.00;94698.19;5108442;28;20277;-60
2022/10/14 05:00:11;;;;;;;3.55;1.42;;;;;;;13.01;99.47;94721.50;5092577;28;20227;-60
2022/10/14 05:02:36;;;;;;;1.60;1.50;;;;;;;12.91;100.00;94691.91;5092978;28;20681;-60
2022/10/14 05:05:02;;;;;;;7.35;2.15;;;;;;;13.01;100.00;94705.41;5108339;28;20224;-59
2022/10/14 05:07:28;;;;;;;4.45;2.22;;;;;;;12.96;100.00;94705.03;5092725;28;20193;-62
2022/10/14 05:09:53;;;;;;;6.45;4.55;;;;;;;13.09;100.00;94701.22;5092641;28;20204;-62
2022/10/14 05:12:19;;;;;;;6.00;3.67;;;;;;;13.13;100.00;94701.75;5108053;28;20601;-63
2022/10/14 05:14:45;;;;;;;5.33;3.60;;;;;;;13.12;99.32;94716.25;5092601;28;20212;-61
2022/10/14 05:17:10;;;;;;;4.80;3.37;;;;;;;12.94;100.00;94682.22;5092490;28;20192;-60
2022/10/14 05:19:36;;;;;;;13.18;10.30;;;;;;;12.86;100.00;94674.47;5092341;28;20215;-63
2022/10/14 05:22:02;;;;;;;8.52;4.95;;;;;;;12.82;100.00;94678.25;5091118;28;20196;-61
2022/10/14 05:24:27;;;;;;;5.72;4.07;;;;;;;12.88;100.00;94675.13;5092254;28;20216;-60
2022/10/14 05:26:52;;;;;;;4.83;3.17;;;;;;;12.89;100.00;94663.97;5092334;28;20195;-63
2022/10/14 05:29:18;;;;;;;3.53;3.22;;;;;;;12.88;100.00;94656.47;5092228;28;20668;-61
2022/10/14 05:31:43;;;;;;;6.57;3.37;;;;;;;12.86;100.00;94656.63;5090694;28;20199;-60
2022/10/14 05:34:10;;;;;;;6.93;2.97;;;;;;;12.92;100.00;94688.41;5092025;28;20204;-59
2022/10/14 05:36:35;;;;;;;4.30;3.17;;;;;;;12.86;100.00;94705.09;5092039;28;20563;-59
2022/10/14 05:39:00;;;;;;;3.67;2.90;;;;;;;12.76;99.82;94703.53;5092517;28;20226;-62
2022/10/14 05:41:26;;;;;;;3.23;2.60;;;;;;;12.68;99.91;94703.44;5092224;28;20238;-59
2022/10/14 05:43:51;;;;;;;3.47;2.90;;;;;;;12.64;100.00;94696.03;5092411;28;20219;-59
2022/10/14 05:46:17;;;;;;;6.03;4.57;;;;;;;12.62;100.00;94686.94;5091051;28;20196;-60
2022/10/14 05:48:42;;;;;;;7.63;3.30;;;;;;;12.64;100.00;94711.34;5092113;28;20188;-63
2022/10/14 05:51:08;;;;;;;3.77;3.10;;;;;;;12.76;98.85;94727.28;5091857;28;20282;-60
2022/10/14 05:53:34;;;;;;;5.03;3.70;;;;;;;12.77;99.66;94720.41;5091792;28;20261;-62
2022/10/14 05:56:04;;;;;;;3.57;3.23;;;;;;;12.77;100.00;94688.06;5091609;28;20203;-62
2022/10/14 05:58:30;;;;;;;3.77;3.20;;;;;;;12.84;100.00;94693.41;5091532;28;20235;-62
2022/10/14 06:01:04;;;;;;;4.83;3.60;;;;;;;13.03;100.00;94701.75;5107306;28;20674;-62
2022/10/14 06:03:30;;;;;;;3.75;3.15;;;;;;;13.20;100.00;94712.97;5092030;28;20188;-62
2022/10/14 06:05:56;;;;;;;7.33;2.70;;;;;;;13.15;98.83;94746.59;5091667;28;20204;-63
2022/10/14 06:08:22;;;;;;;3.23;2.00;;;;;;;13.21;97.90;94763.09;5091870;28;20567;-63
2022/10/14 06:10:47;;;;;;;3.53;2.40;;;;;;;13.32;98.71;94742.47;5091411;28;20302;-59
2022/10/14 06:13:13;;;;;;;3.77;1.90;;;;;;;13.37;96.04;94787.03;5091572;28;20324;-63
2022/10/14 06:15:38;;;;;;;6.70;2.10;;;;;;;13.37;94.91;94792.13;5091535;28;20211;-60
2022/10/14 06:18:04;;;;;;;3.50;2.28;;;;;;;13.53;100.00;94734.53;5091501;28;20188;-62
2022/10/14 06:20:30;;;;;;;5.55;2.40;;;;;;;13.45;100.00;94738.59;5091550;28;20209;-62
2022/10/14 06:22:58;;;;;;;4.47;2.47;;;;;;;13.49;94.39;94821.63;5091685;28;20628;-62
2022/10/14 06:25:23;;;;;;;2.83;2.20;;;;;;;13.37;96.42;94781.16;5089940;28;20228;-60
2022/10/14 06:27:49;;;;;;;5.75;3.10;;;;;;;13.43;96.57;94772.91;5091796;28;20199;-62
2022/10/14 06:30:15;;;;;;;5.33;2.77;;;;;;;13.61;93.99;94813.78;5091310;28;20216;-61
2022/10/14 06:32:40;;;;;;;4.05;2.97;;;;;;;13.59;94.71;94785.03;5091404;28;20217;-63
2022/10/14 06:35:06;;;;;;;4.63;3.63;;;;;;;13.63;93.20;94811.91;5091091;28;20632;-61
2022/10/14 06:37:32;;;;;;;3.75;2.67;;;;;;;13.67;92.40;94824.25;5091469;28;20192;-62
2022/10/14 06:39:57;;;;;;;3.72;2.38;;;;;;;13.70;92.92;94813.72;5091121;28;20281;-62
2022/10/14 06:42:28;;;;;;;4.40;3.35;;;;;;;13.56;94.58;94788.66;5091126;28;20192;-63
2022/10/14 06:44:54;;;;;;;5.30;3.42;;;;;;;13.61;94.08;94793.34;5090992;28;20212;-60
2022/10/14 06:47:19;;;;;;;6.40;3.53;;;;;;;13.72;93.12;94800.78;5090723;28;20177;-61
2022/10/14 06:49:45;;;;;;;8.95;3.83;;;;;;;13.71;93.41;94805.13;5091031;28;20234;-61
2022/10/14 06:52:10;;;;;;;3.42;3.13;;;;;;;13.83;92.63;94801.41;5090978;28;20192;-58
2022/10/14 06:54:36;;;;;;;4.93;3.50;;;;;;;13.95;91.17;94824.97;5090916;28;20207;-61
2022/10/14 06:57:01;;;;;;;3.78;2.92;;;;;;;13.94;91.91;94811.41;5042631;22;20233;-60
2022/10/14 06:59:27;;;;;;;3.95;3.20;;;;;;;14.03;92.79;94796.94;5030798;28;20202;-61
2022/10/14 07:01:54;;;;;;;5.72;3.80;;;;;;;14.16;90.26;94833.97;5030780;28;20186;-62
2022/10/14 07:04:20;;;;;;;5.32;3.88;;;;;;;14.06;91.62;94802.56;5030725;28;20592;-62
2022/10/14 07:06:45;;;;;;;4.13;2.80;;;;;;;14.17;90.72;94833.03;5030957;28;20198;-62
2022/10/14 07:09:10;;;;;;;4.75;3.28;;;;;;;14.21;91.19;94818.19;5030505;28;20216;-63
2022/10/14 07:11:36;;;;;;;7.15;3.40;;;;;;;14.16;89.84;94831.41;5030965;28;20186;-60
2022/10/14 07:14:02;;;;;;;4.28;2.78;;;;;;;14.28;87.45;94870.38;5030420;28;20579;-59
2022/10/14 07:16:27;;;;;;;6.88;3.78;;;;;;;14.28;87.88;94852.50;5030854;28;20644;-64
2022/10/14 07:18:52;;;;;;;6.20;3.72;;;;;;;14.34;88.38;94848.53;5012976;28;20214;-62
2022/10/14 07:21:18;;;;;;;6.15;3.70;;;;;;;14.41;88.16;94854.66;5029187;28;20683;-62
2022/10/14 07:23:44;;;;;;;4.32;3.92;;;;;;;14.29;87.23;94864.31;5030595;28;20560;-62
2022/10/14 07:26:09;;;;;;;6.30;3.55;;;;;;;14.37;89.25;94817.53;5012672;28;20305;-62
2022/10/14 07:28:35;;;;;;;3.83;3.00;;;;;;;14.32;87.18;94851.25;5029611;28;20183;-59
2022/10/14 07:31:04;;;;;;;5.78;4.70;;;;;;;14.41;87.98;94837.56;5030677;28;20202;-63
2022/10/14 07:33:30;;;;;;;10.18;4.70;;;;;;;14.48;87.89;94845.44;5030362;28;20178;-64
2022/10/14 07:35:59;;;;;;;7.90;4.00;;;;;;;14.45;86.61;94856.75;5030537;28;20260;-59
2022/10/14 07:38:25;;;;;;;3.92;3.35;;;;;;;14.50;84.91;94892.94;5030564;28;20232;-62
2022/10/14 07:41:15;;;;;;;4.30;3.17;;;;;;;14.34;84.54;94882.59;5030115;28;20194;-62
2022/10/14 07:43:48;;;;;;;3.70;3.25;;;;;;;14.47;84.60;94889.88;5030255;28;20181;-59
2022/10/14 07:46:17;;;;;;;15.23;3.75;;;;;;;14.48;83.66;94882.06;5030448;28;20615;-62
2022/10/14 07:48:42;;;;;;;3.97;3.40;;;;;;;14.48;83.99;94883.81;5011917;28;20182;-61
2022/10/14 07:51:08;;;;;;;4.05;3.00;;;;;;;14.31;83.88;94880.31;5030115;28;20251;-61
2022/10/14 07:53:35;;;;;;;5.93;4.07;;;;;;;14.53;83.07;94907.19;5012353;28;20186;-63
2022/10/14 07:56:02;;;;;;;4.30;3.50;;;;;;;14.56;83.34;94900.03;5030369;28;20195;-62
2022/10/14 07:58:29;;;;;;;3.15;2.90;;;;;;;14.59;82.86;94902.28;5029839;28;20194;-61
2022/10/14 08:00:55;;;;;;;7.15;3.45;;;;;;;14.57;82.55;94909.31;5030149;28;20740;-63
2022/10/14 08:03:21;;;;;;;5.47;3.83;;;;;;;14.72;83.21;94889.94;5012188;28;20758;-61
2022/10/14 08:05:49;;;;;;;5.15;2.83;;;;;;;14.80;82.47;94901.97;5012096;28;20218;-60
2022/10/14 08:08:15;;;;;;;6.80;3.60;;;;;;;14.71;83.33;94880.63;5029527;28;20229;-62
2022/10/14 08:10:40;;;;;;;4.05;3.25;;;;;;;14.71;84.63;94855.03;5033448;28;20247;-59
2022/10/14 08:13:06;;;;;;;3.60;3.10;;;;;;;14.77;82.24;94897.94;5033314;28;20178;-63
2022/10/14 08:15:39;;;;;;;2.85;2.65;;;;;;;14.83;81.80;94905.03;5033311;28;20274;-62
2022/10/14 08:18:05;;;;;;;3.28;2.97;;;;;;;14.81;80.88;94919.72;5015644;28;20237;-61
2022/10/14 08:20:31;;;;;;;4.18;2.97;;;;;;;14.95;80.91;94932.00;5033424;28;20221;-60
2022/10/14 08:22:57;;;;;;;3.30;2.90;;;;;;;14.99;79.99;94943.53;5033055;28;20198;-60
2022/10/14 08:25:23;;;;;;;10.63;2.90;;;;;;;14.92;81.41;94893.91;5032962;28;20225;-61
2022/10/14 08:27:50;;;;;;;5.80;2.45;;;;;;;15.06;77.70;94990.66;5057864;22;20260;-61
2022/10/14 08:30:16;;;;;;;6.68;3.17;;;;;;;15.09;79.86;94928.06;5072899;28;20259;-63
2022/10/14 08:32:41;;;;;;;4.05;2.22;;;;;;;15.17;77.57;94988.81;5072993;28;20197;-61
2022/10/14 08:35:08;;;;;;;3.20;2.70;;;;;;;14.97;78.12;94949.75;5072781;28;20216;-60
2022/10/14 08:37:33;;;;;;;3.30;2.85;;;;;;;15.13;80.17;94916.56;5072947;28;20655;-62
2022/10/14 08:39:59;;;;;;;3.42;2.65;;;;;;;15.28;77.58;94968.88;5072831;28;20254;-59
2022/10/14 08:42:52;;;;;;;5.18;2.30;;;;;;;15.44;75.52;95015.13;5073033;28;20189;-61
2022/10/14 08:45:30;;;;;;;2.58;2.38;;;;;;;15.46;75.61;95004.72;5072450;28;20209;-61
2022/10/14 08:47:59;;;;;;;5.50;2.22;;;;;;;15.39;73.66;95027.53;5072679;28;20682;-61
2022/10/14 08:50:52;;;;;;;3.38;2.63;;;;;;;15.44;73.47;95029.69;5072594;28;20215;-61
2022/10/14 08:53:27;;;;;;;2.25;1.85;;;;;;;15.54;72.94;95045.78;5072846;28;20204;-59
2022/10/14 08:55:59;;;;;;;5.78;2.30;;;;;;;15.46;73.21;95018.34;5072384;28;20314;-61
2022/10/14 08:58:30;;;;;;;3.33;1.80;;;;;;;15.68;73.61;95002.44;5072942;28;20197;-60
2022/10/14 09:01:00;;;;;;;2.05;1.85;;;;;;;15.82;72.50;95024.16;5072383;28;20170;-63
2022/10/14 09:03:32;;;;;;;3.13;1.95;;;;;;;16.02;71.00;95052.97;5072883;28;20188;-60
2022/10/14 09:06:25;;;;;;;2.10;1.90;;;;;;;16.18;69.02;95094.09;5070980;28;20217;-62
2022/10/14 09:08:55;;;;;;;6.13;2.40;;;;;;;16.41;69.77;95061.78;5054477;28;20308;-62
2022/10/14 09:11:23;;;;;;;3.70;2.20;;;;;;;16.43;68.44;95088.88;5054235;28;20181;-61
2022/10/14 09:14:00;;;;;;;2.78;2.20;;;;;;;16.93;67.62;95099.19;5072201;28;20244;-61
2022/10/14 09:16:34;;;;;;;5.35;2.50;;;;;;;17.13;67.11;95097.16;5053900;28;20188;-61
2022/10/14 09:19:03;;;;;;;5.20;2.55;;;;;;;17.30;67.70;95075.63;5070757;28;20204;-60
2022/10/14 09:21:33;;;;;;;3.17;2.40;;;;;;;17.21;66.64;95103.06;5071953;28;20287;-64
2022/10/14 09:24:20;;;;;;;6.72;3.28;;;;;;;17.09;68.61;95034.19;5072475;28;20304;-60
2022/10/14 09:26:59;;;;;;;3.75;2.50;;;;;;;17.09;69.36;95014.41;5072053;28;20208;-62
2022/10/14 09:29:41;;;;;;;4.75;2.50;;;;;;;17.01;68.11;95036.75;5054013;28;20211;-59
2022/10/14 09:32:13;;;;;;;2.30;2.10;;;;;;;17.05;67.83;95043.97;5072092;28;20199;-60
2022/10/14 09:34:45;;;;;;;4.18;2.88;;;;;;;17.02;69.27;94992.91;5072013;28;20203;-61
2022/10/14 09:37:33;;;;;;;4.60;2.80;;;;;;;17.06;67.80;95049.91;5072147;28;20207;-60
2022/10/14 09:40:07;;;;;;;3.40;2.15;;;;;;;16.96;68.56;95021.00;5071922;28;20205;-62
2022/10/14 09:42:57;;;;;;;5.55;2.92;;;;;;;17.03;68.46;95025.34;5072194;28;20199;-60
2022/10/14 09:45:24;;;;;;;3.75;2.63;;;;;;;16.66;67.20;95041.16;5071870;28;20217;-60
2022/10/14 09:47:57;;;;;;;3.83;2.40;;;;;;;16.51;69.16;94996.56;5071512;28;20201;-60
2022/10/14 09:50:32;;;;;;;2.55;2.35;;;;;;;16.71;68.94;95003.00;5071891;28;20299;-60
2022/10/14 09:53:05;;;;;;;4.57;2.30;;;;;;;16.81;67.94;95025.97;5053568;28;20245;-62
2022/10/14 09:55:32;;;;;;;6.90;2.80;;;;;;;16.98;70.07;94967.72;5053816;28;20679;-62
2022/10/14 09:58:03;;;;;;;3.47;2.72;;;;;;;17.17;68.72;95013.66;5071562;28;20776;-61
2022/10/14 10:00:30;;;;;;;9.70;3.47;;;;;;;17.45;78.03;94847.81;5071518;28;20193;-62
2022/10/14 10:02:56;;;;;;;3.08;2.78;;;;;;;17.86;75.75;94984.78;5071912;28;20204;-60
2022/10/14 10:05:28;;;;;;;3.22;2.72;;;;;;;18.11;66.85;95105.50;5071550;28;20209;-64
2022/10/14 10:08:03;;;;;;;3.92;2.50;;;;;;;18.25;61.74;95176.88;5071793;28;20212;-62
2022/10/14 10:10:33;;;;;;;2.28;2.08;;;;;;;18.23;60.92;95167.72;5071399;28;20588;-63
2022/10/14 10:12:59;;;;;;;2.72;2.28;;;;;;;18.12;60.58;95161.13;5071203;28;20189;-64
2022/10/14 10:15:24;;;;;;;3.78;2.60;;;;;;;18.25;60.98;95133.13;5070864;28;20201;-62
2022/10/14 10:17:50;;;;;;;6.30;2.45;;;;;;;18.58;58.73;95200.00;5069720;28;20196;-61
2022/10/14 10:20:35;;;;;;;6.28;2.08;;;;;;;18.13;55.25;95264.88;5070128;28;20204;-61
2022/10/14 10:23:25;;;;;;;4.60;2.10;;;;;;;18.24;55.05;95257.63;5071224;28;20188;-62
2022/10/14 10:25:51;;;;;;;3.15;2.38;;;;;;;18.27;56.43;95182.66;5071012;28;20277;-62
2022/10/14 10:28:30;;;;;;;3.47;2.20;;;;;;;18.38;54.42;95244.09;5071492;28;20572;-61
2022/10/14 10:31:18;;;;;;;2.53;1.95;;;;;;;18.31;56.18;95165.94;5052495;28;20180;-63
2022/10/14 10:34:03;;;;;;;1.90;1.80;;;;;;;18.09;57.75;95110.00;5071632;28;20220;-59
2022/10/14 10:36:34;;;;;;;2.72;2.53;;;;;;;18.26;60.05;95036.91;5071296;28;20267;-64
2022/10/14 10:39:20;;;;;;;2.35;2.00;;;;;;;18.32;57.04;95130.69;5071072;28;20209;-60
2022/10/14 10:42:04;;;;;;;2.40;2.05;;;;;;;18.25;53.89;95207.78;5070747;28;20675;-60
2022/10/14 10:44:39;;;;;;;1.73;1.63;;;;;;;18.20;53.85;95215.16;5052572;28;20219;-59
2022/10/14 10:47:23;;;;;;;2.70;1.85;;;;;;;17.95;55.47;95145.88;5070950;28;20200;-63
2022/10/14 10:50:11;;;;;;;5.95;2.08;;;;;;;17.97;55.26;95147.31;5069526;28;20210;-59
2022/10/14 10:52:51;;;;;;;3.40;1.85;;;;;;;17.61;55.49;95131.41;5070842;28;20275;-64
2022/10/14 10:55:36;;;;;;;2.28;1.60;;;;;;;17.58;57.66;95058.94;5070830;28;20208;-58
2022/10/14 10:58:27;;;;;;;3.35;2.00;;;;;;;17.78;57.61;95067.91;5070980;28;20176;-58
2022/10/14 11:01:04;;;;;;;1.58;1.48;;;;;;;17.89;55.66;95118.22;5070954;28;20272;-64
2022/10/14 11:03:53;;;;;;;2.75;1.60;;;;;;;17.89;52.97;95196.22;5070536;28;20654;-60
2022/10/14 11:12:53;;;;;;;1.00;1.00;;;;;;;17.93;49.30;95269.53;5070954;28;20195;-62
2022/10/14 11:15:49;;;;;;;1.40;1.30;;;;;;;18.09;51.09;95207.78;5031799;28;20224;-63
2022/10/14 11:21:30;;;;;;;3.92;1.00;;;;;;;17.93;50.60;95199.25;5037466;23;20238;-59
2022/10/14 11:24:05;;;;;;;2.72;1.30;;;;;;;17.79;48.42;95259.88;5030575;28;20222;-60
2022/10/14 11:26:44;;;;;;;1.00;1.00;;;;;;;17.83;47.42;95292.03;5030475;28;20280;-58
2022/10/14 11:29:44;;;;;;;1.63;0.98;;;;;;;17.91;43.94;95412.16;5012633;28;20225;-62
2022/10/14 11:32:22;;;;;;;0.80;0.80;;;;;;;17.95;41.57;95470.88;5030303;28;20737;-60
2022/10/14 11:35:16;;;;;;;0.82;0.77;;;;;;;18.13;43.50;95366.06;5030464;28;20324;-61
2022/10/14 11:38:09;;;;;;;3.58;2.83;;;;;;;18.37;42.28;95417.59;5030079;28;20194;-59
2022/10/14 11:40:40;;;;;;;5.47;1.40;;;;;;;18.18;44.06;95337.28;5030372;28;20213;-61
2022/10/14 11:43:32;;;;;;;14.63;2.42;;;;;;;17.94;42.49;95374.03;5029473;28;20198;-60
2022/10/14 11:46:06;;;;;;;1.67;0.80;;;;;;;18.10;40.94;95435.84;5010359;28;20264;-62
2022/10/14 11:48:38;;;;;;;1.95;0.80;;;;;;;18.12;42.52;95361.06;5033899;28;20656;-60
2022/10/14 11:51:31;;;;;;;0.70;0.70;;;;;;;17.97;43.71;95304.28;5033547;28;20657;-61
2022/10/14 11:54:02;;;;;;;0.73;0.70;;;;;;;18.29;45.06;95244.28;5033609;28;20235;-59
2022/10/14 11:56:38;;;;;;;3.33;1.23;;;;;;;18.40;43.12;95321.97;5033470;28;20662;-61
2022/10/14 11:59:28;;;;;;;1.48;1.00;;;;;;;18.72;45.10;95240.53;5033347;28;20210;-62